Atwater, Minnesota
Current Conditions -  °F | °C
As of 4:32 AM on Thursday 23 Oct 2014 (Local Time) from KLJF Reporting Station
Haze Haze  
Wind Chill: 12°   Ceiling: 500
Heat Index: 12°   Visibility: 0.75mi
Dew Point: 12°   Wind: 0mph
Humidity: 100%   Direction: NA
Pressure: 29.97"   Gusts: NA
Location:  45.14°N, 94.78°W
Report Text: KLJF 230932Z AUTO 00000KT 3/4SM BR VV005 12/12 A2997 RMK AO2 VIS 1/2V3
Loading
Personal Weather Stations






























Interactive Weather Map
Tropical Storm Tracking
New forecast layout! Learn more

10-Day Weather Forecast

Advertisements
Track Severe Weather on mobile